• Join FlightAware (Why Join?)
  • Login
  • US Flag 
10:42PM EDT


 

Airport Tracker/Info


-or-


 

Live Flight TrackerFlight Track Log ✈ SWA642 ✈ 21-Apr-2013 ✈ KMSY - KHOU

Flight Track Log - Related Links

Times and Time Zones

All times are in EDT time to prevent confusion due to time zone crossing. See the SWA642 flight status page for this flight to view local times or setup timezone preferences in your user account.

Time Position Orientation Groundspeed Altitude Reporting Facility
EDT Latitude Longitude Course Direction KTS MPH feet Rate Location/Type
12:33PM 30.0250 -90.2422 North 161 185 1,300  Level Houston Center
12:33PM 30.0425 -90.2392 North 183 211 1,900 2,400 Climbing Houston Center
12:34PM 30.0811 -90.2306 11° North 205 236 3,800 3,240 Climbing Houston Center
12:34PM 30.0944 -90.2275 11° North 221 254 4,900 2,880 Climbing Houston Center
12:35PM 30.1156 -90.2631 304° West 215 247 7,400 2,880 Climbing Houston Center
12:36PM 30.0750 -90.3467 241° Southwest 250 288 10,800 2,580 Climbing Houston Center
12:37PM 30.0306 -90.4358 240° Southwest 315 362 12,800 2,880 Climbing Houston Center
12:38PM 29.9783 -90.5344 239° Southwest 353 406 16,800 3,660 Climbing Houston Center
12:39PM 29.9172 -90.6508 239° Southwest 354 407 20,400 3,060 Climbing Houston Center
12:40PM 29.8656 -90.7492 239° Southwest 358 412 23,200 2,340 Climbing Houston Center
12:41PM 29.8111 -90.8492 238° Southwest 364 419 25,300 1,920 Climbing Houston Center
12:42PM 29.7517 -90.9539 237° Southwest 383 441 27,300 1,980 Climbing Houston Center
12:43PM 29.6906 -91.0586 236° Southwest 391 450 29,500 2,220 Climbing Houston Center
12:45PM 29.6311 -91.1856 242° Southwest 378 435 32,000 1,680 Climbing Houston Center
12:46PM 29.6142 -91.3014 260° West 370 426 33,000 960 Climbing Houston Center
12:47PM 29.5939 -91.4144 258° West 365 420 34,000 480 Climbing Houston Center
12:48PM 29.5733 -91.5264 258° West 360 414 34,000  Level Houston Center
12:49PM 29.5533 -91.6378 258° West 359 413 34,000  Level Houston Center
12:50PM 29.5300 -91.7544 257° West 358 412 34,000  Level Houston Center
12:51PM 29.5094 -91.8681 258° West 361 415 34,000  Level Houston Center
12:52PM 29.4900 -91.9811 259° West 362 417 34,000  Level Houston Center
12:53PM 29.4647 -92.1178 258° West 365 420 34,000  Level Houston Center
12:54PM 29.4433 -92.2325 258° West 367 422 34,000  Level Houston Center
12:55PM 29.4219 -92.3469 258° West 367 422 34,000  Level Houston Center
12:56PM 29.4006 -92.4625 258° West 369 425 34,000  Level Houston Center
12:57PM 29.3800 -92.5772 258° West 368 423 34,000  Level Houston Center
12:58PM 29.3578 -92.6933 258° West 372 428 34,000  Level Houston Center
12:59PM 29.3397 -92.8331 262° West 371 427 34,000  Level Houston Center
01:00PM 29.3353 -92.9503 268° West 370 426 34,000  Level Houston Center
01:01PM 29.3308 -93.0672 268° West 367 422 34,000  Level Houston Center
01:02PM 29.3264 -93.1842 268° West 368 423 34,000  Level Houston Center
01:03PM 29.3214 -93.3000 267° West 365 420 34,000 -360 Level Houston Center
01:04PM 29.3164 -93.4172 267° West 367 422 33,300 -1,500 Descending Houston Center
01:05PM 29.3119 -93.5336 268° West 367 422 30,900 -2,760 Descending Houston Center
01:06PM 29.3056 -93.6750 267° West 368 423 27,600 -2,820 Descending Houston Center
01:07PM 29.3008 -93.7947 267° West 373 429 25,100 -2,280 Descending Houston Center
01:08PM 29.2961 -93.8992 267° West 369 425 22,900 -2,520 Descending Houston Center
01:09PM 29.2894 -94.0350 267° West 366 421 20,000 -2,580 Descending Houston Center
01:10PM 29.2842 -94.1569 267° West 354 407 17,600 -1,860 Descending Houston Center
01:11PM 29.2781 -94.2633 266° West 341 392 16,200 -1,500 Descending Houston Center
01:12PM 29.2733 -94.3622 267° West 336 387 14,700 -2,040 Descending Houston Center
01:13PM 29.2683 -94.4828 267° West 328 377 12,100 -1,620 Descending Houston Center
01:14PM 29.2856 -94.5714 283° West 335 386 11,200 -1,020 Descending Houston Center
01:16PM 29.3111 -94.6994 283° West 342 394 10,000 -600 Descending Houston Center
01:16PM 29.3311 -94.8031 283° West 333 383 10,000 -300 Level Houston Center
01:17PM 29.3497 -94.8872 284° West 269 310 9,500 -1,140 Descending Houston Center
01:19PM 29.3672 -94.9833 282° West 282 325 7,800 -1,500 Descending Houston Center
01:19PM 29.3850 -95.0603 285° West 274 315 6,500 -1,260 Descending Houston Center
01:21PM 29.4019 -95.1514 282° West 273 314 5,100 -1,200 Descending Houston Center
01:22PM 29.4186 -95.2386 282° West 264 304 4,000 -1,140 Descending Houston Center
01:23PM 29.4608 -95.3078 305° West 256 295 3,000 -900 Descending Houston Center
01:24PM 29.5192 -95.3272 344° North 213 245 2,200 -780 Descending Houston Center
01:25PM 29.5703 -95.3353 352° North 161 185 1,500 -660 Descending Houston Center
01:26PM 29.6128 -95.3158 22° Northeast 135 155 800 14,220 Descending Houston Center
01:27PM 29.6414 -95.2842 44° Northeast 147 169 34,000 28,020 Climbing Houston Center